KMGM/MGM METAR and TAF weather

Enter ICAO airport designator
Station Type Date Time Source
KMGM METAR 2021/09/27 06:53 UTC NOAA

KMGM 270653Z AUTO 00000KT 10SM CLR 17/15 A3010 RMK AO2 SLP191 T01670150


Station Type Date Time Source
KMGM Decoded METAR 2021/09/27 06:53 UTC NOAA

MONTGOMERY DANNELLY FIELD, AL, United States (KMGM) 32-18N 86-24W 63M
Sep 27, 2021 - 02:53 AM EDT / 2021.09.27 0653 UTC
Wind: Calm:0
Visibility: 10 mile(s):0
Sky conditions: clear
Temperature: 62.1 F (16.7 C)
Dew Point: 59.0 F (15.0 C)
Relative Humidity: 89%
Pressure (altimeter): 30.1 in. Hg (1019 hPa)
ob: KMGM 270653Z AUTO 00000KT 10SM CLR 17/15 A3010 RMK AO2 SLP191 T01670150
cycle: 7

Station Type Date Time Source
KMGM TAF 2021/09/27 06:39 UTC NOAA

TAF KMGM 270538Z 2706/2806 00000KT P6SM SKC

Example: see airport list